Time;durP1;ratioP1;P1;durP2;ratioP2;P2;SDS_P1;SDS_P2;PMS_P1;PMS_P2;Temp;Humidity;BMP_temperature;BMP_pressure;BME280_temperature;BME280_humidity;BME280_pressure;Samples;Min_cycle;Max_cycle;Signal;HPM_P1;HPM_P2
2023/12/06 00:00:16;;;;;;;9.95;4.28;;;;;;;5.47;80.48;99591.31;10254652;28;20098;-57
2023/12/06 00:05:18;;;;;;;10.68;4.47;;;;;;;5.48;79.92;99594.81;10239023;28;20059;-56
2023/12/06 00:10:19;;;;;;;9.10;4.30;;;;;;;5.49;79.89;99597.31;10239920;28;20050;-57
2023/12/06 00:15:20;;;;;;;10.57;5.22;;;;;;;5.50;80.12;99598.16;10253316;28;20132;-56
2023/12/06 00:20:22;;;;;;;9.02;5.07;;;;;;;5.40;80.57;99602.78;10239684;28;20142;-58
2023/12/06 00:25:24;;;;;;;9.48;5.18;;;;;;;5.51;79.57;99594.47;10237746;28;20395;-55
2023/12/06 00:30:26;;;;;;;11.75;5.25;;;;;;;5.43;80.26;99597.97;10238611;28;20066;-58
2023/12/06 00:35:27;;;;;;;9.85;4.63;;;;;;;5.38;80.27;99608.28;10237818;28;20495;-59
2023/12/06 00:40:29;;;;;;;13.68;5.28;;;;;;;5.47;80.70;99606.47;10233176;28;20486;-58
2023/12/06 00:45:30;;;;;;;13.18;5.82;;;;;;;5.52;79.79;99612.97;10235580;28;20402;-58
2023/12/06 00:50:32;;;;;;;10.82;5.47;;;;;;;5.47;80.07;99619.78;10235773;28;20066;-59
2023/12/06 00:55:34;;;;;;;8.98;4.45;;;;;;;5.49;80.21;99617.78;10235405;28;20103;-59
2023/12/06 01:00:35;;;;;;;9.98;4.07;;;;;;;5.55;79.84;99625.16;10236466;28;20055;-58
2023/12/06 01:05:37;;;;;;;8.70;3.90;;;;;;;5.55;79.89;99628.66;10234537;28;20047;-59
2023/12/06 01:10:42;;;;;;;7.43;4.25;;;;;;;5.56;79.44;99624.97;10235260;28;20058;-59
2023/12/06 01:15:44;;;;;;;6.13;3.47;;;;;;;5.56;80.26;99635.66;10234193;28;20450;-59
2023/12/06 01:20:46;;;;;;;8.82;4.25;;;;;;;5.59;80.49;99636.31;10235176;28;20051;-58
2023/12/06 01:25:47;;;;;;;10.25;4.25;;;;;;;5.65;79.85;99636.53;10232948;28;20688;-58
2023/12/06 01:30:49;;;;;;;6.13;3.15;;;;;;;5.67;79.24;99642.53;10235257;28;20138;-58
2023/12/06 01:35:50;;;;;;;5.78;3.35;;;;;;;5.70;79.59;99644.84;10234578;28;20134;-58
2023/12/06 01:40:51;;;;;;;7.35;3.65;;;;;;;5.69;79.87;99650.38;10232852;28;20047;-59
2023/12/06 01:45:53;;;;;;;9.25;3.90;;;;;;;5.70;79.69;99647.53;10234128;28;20043;-59
2023/12/06 01:50:56;;;;;;;8.23;2.90;;;;;;;5.69;80.08;99653.03;10234548;28;20102;-59
2023/12/06 01:55:58;;;;;;;5.63;3.03;;;;;;;5.75;79.28;99653.22;10233754;28;20043;-59
2023/12/06 02:01:00;;;;;;;6.95;3.22;;;;;;;5.76;79.65;99654.88;10232743;28;20378;-59
2023/12/06 02:06:03;;;;;;;6.13;3.28;;;;;;;5.77;79.32;99663.72;10233610;28;20058;-58
2023/12/06 02:11:05;;;;;;;5.30;2.67;;;;;;;5.76;79.10;99670.88;10234145;28;20126;-59
2023/12/06 02:16:07;;;;;;;6.97;3.78;;;;;;;5.70;79.75;99676.84;10232645;28;20137;-58
2023/12/06 02:21:09;;;;;;;6.80;2.85;;;;;;;5.72;79.84;99669.53;10234168;28;20043;-58
2023/12/06 02:26:10;;;;;;;7.80;3.50;;;;;;;5.70;79.44;99679.53;10232623;28;20069;-59
2023/12/06 02:31:12;;;;;;;9.40;3.33;;;;;;;5.73;80.03;99671.22;10234743;28;20058;-59
2023/12/06 02:36:14;;;;;;;5.55;3.10;;;;;;;5.75;79.66;99665.72;10232688;28;20410;-59
2023/12/06 02:41:16;;;;;;;6.13;3.10;;;;;;;5.79;79.32;99669.75;10232149;28;20423;-59
2023/12/06 02:46:18;;;;;;;4.43;3.03;;;;;;;5.85;79.48;99678.94;10236862;28;20130;-59
2023/12/06 02:51:22;;;;;;;6.32;2.50;;;;;;;5.87;78.94;99683.09;10240045;28;20055;-58
2023/12/06 02:56:26;;;;;;;5.85;2.75;;;;;;;5.92;78.92;99677.25;10237247;28;20082;-59
2023/12/06 03:01:28;;;;;;;5.90;3.05;;;;;;;5.94;79.23;99680.59;10238604;28;20048;-59
2023/12/06 03:06:29;;;;;;;5.40;3.15;;;;;;;5.99;78.61;99672.16;10239476;28;20070;-58
2023/12/06 03:11:31;;;;;;;5.68;2.92;;;;;;;5.99;78.77;99673.00;10239690;28;20051;-58
2023/12/06 03:16:33;;;;;;;5.22;2.97;;;;;;;6.00;79.14;99681.81;10239163;28;20043;-58
2023/12/06 03:21:35;;;;;;;8.30;2.92;;;;;;;6.09;79.00;99681.69;10236090;28;20054;-60
2023/12/06 03:26:37;;;;;;;6.90;3.53;;;;;;;6.16;78.75;99689.84;10239212;28;20055;-58
2023/12/06 03:31:38;;;;;;;4.97;3.05;;;;;;;6.22;78.29;99685.69;10237974;28;20061;-58
2023/12/06 03:36:39;;;;;;;7.57;2.70;;;;;;;6.23;78.34;99690.88;10239319;28;20046;-58
2023/12/06 03:41:41;;;;;;;5.93;2.80;;;;;;;6.24;78.27;99687.22;10236995;28;20054;-59
2023/12/06 03:46:42;;;;;;;5.00;2.03;;;;;;;6.22;78.24;99686.56;10240246;28;20051;-59
2023/12/06 03:51:44;;;;;;;3.00;1.98;;;;;;;6.26;78.15;99695.03;10234597;28;20110;-58
2023/12/06 03:56:45;;;;;;;5.45;2.47;;;;;;;6.23;78.01;99698.06;10236936;28;20044;-59
2023/12/06 04:01:47;;;;;;;3.28;1.98;;;;;;;6.30;77.64;99696.38;10236614;28;20063;-59
2023/12/06 04:06:48;;;;;;;5.22;1.90;;;;;;;6.31;78.15;99698.88;10239040;28;20114;-57
2023/12/06 04:11:50;;;;;;;4.78;2.22;;;;;;;6.27;77.80;99700.22;10237612;28;20054;-57
2023/12/06 04:16:52;;;;;;;6.13;2.45;;;;;;;6.31;78.51;99704.22;10235904;28;20506;-56
2023/12/06 04:21:53;;;;;;;7.20;2.92;;;;;;;6.31;77.90;99708.72;10236699;28;20047;-57
2023/12/06 04:26:54;;;;;;;6.38;2.40;;;;;;;6.27;78.68;99707.41;10238122;28;20050;-57
2023/12/06 04:31:56;;;;;;;6.38;2.42;;;;;;;6.19;78.46;99715.38;10235908;28;20044;-57
2023/12/06 04:36:57;;;;;;;3.75;1.90;;;;;;;6.15;78.73;99723.72;10220138;28;20047;-57
2023/12/06 04:41:59;;;;;;;7.45;2.72;;;;;;;6.04;79.06;99724.03;10241346;28;20713;-56
2023/12/06 04:47:00;;;;;;;5.05;2.53;;;;;;;6.00;79.70;99733.31;10236670;28;20070;-57
2023/12/06 04:52:03;;;;;;;10.30;2.83;;;;;;;5.91;79.84;99739.63;10234042;28;20134;-57
2023/12/06 04:57:04;;;;;;;10.90;4.53;;;;;;;5.86;79.00;99744.59;10236020;28;20147;-57
2023/12/06 05:02:06;;;;;;;5.85;2.50;;;;;;;5.82;79.52;99752.06;10234127;28;20039;-56
2023/12/06 05:07:08;;;;;;;7.13;3.25;;;;;;;5.79;78.82;99754.25;10234720;28;20451;-56
2023/12/06 05:12:09;;;;;;;7.35;2.92;;;;;;;5.76;79.49;99756.22;10233978;28;20039;-56
2023/12/06 05:17:11;;;;;;;8.75;3.08;;;;;;;5.74;80.06;99752.88;10235008;28;20526;-58
2023/12/06 05:22:12;;;;;;;7.97;3.45;;;;;;;5.68;79.18;99750.84;10233387;28;20109;-58
2023/12/06 05:27:13;;;;;;;8.20;3.97;;;;;;;5.72;79.86;99756.69;10234986;28;20044;-58
2023/12/06 05:32:15;;;;;;;6.38;3.75;;;;;;;5.83;79.59;99766.25;10230782;28;20066;-59
2023/12/06 05:37:17;;;;;;;7.80;4.10;;;;;;;5.86;78.99;99771.25;10235121;28;20051;-58
2023/12/06 05:42:18;;;;;;;8.63;4.03;;;;;;;5.77;79.62;99778.41;10233089;28;20557;-59
2023/12/06 05:47:20;;;;;;;6.63;3.60;;;;;;;5.70;79.54;99774.69;10232331;28;20410;-59
2023/12/06 05:52:22;;;;;;;6.63;3.22;;;;;;;5.70;79.29;99788.03;10231705;28;20192;-59
2023/12/06 05:57:23;;;;;;;4.85;2.45;;;;;;;5.78;79.54;99787.22;10229576;28;20039;-58
2023/12/06 06:02:25;;;;;;;4.85;2.65;;;;;;;5.65;79.22;99788.50;10229216;28;20047;-59
2023/12/06 06:07:26;;;;;;;4.45;2.50;;;;;;;5.68;79.61;99793.50;10226903;28;20063;-59
2023/12/06 06:12:28;;;;;;;4.03;2.28;;;;;;;5.66;78.63;99794.66;10227839;28;20098;-59
2023/12/06 06:17:30;;;;;;;3.25;1.95;;;;;;;5.71;79.13;99797.72;10228459;28;20062;-59
2023/12/06 06:22:31;;;;;;;2.95;1.40;;;;;;;5.65;78.56;99804.50;10240739;28;20047;-58
2023/12/06 06:27:33;;;;;;;3.25;2.13;;;;;;;5.67;78.57;99807.84;10242250;28;20110;-59
2023/12/06 06:32:34;;;;;;;4.13;1.75;;;;;;;5.66;78.39;99810.66;10238549;28;20059;-58
2023/12/06 06:37:36;;;;;;;3.47;1.63;;;;;;;5.61;78.15;99819.16;10238093;28;20047;-59
2023/12/06 06:42:37;;;;;;;4.28;1.25;;;;;;;5.59;78.36;99818.47;10237375;28;20574;-59
2023/12/06 06:47:38;;;;;;;2.97;1.65;;;;;;;5.58;77.65;99822.09;10242115;28;20133;-59
2023/12/06 06:52:40;;;;;;;2.15;1.23;;;;;;;5.57;78.20;99833.78;10238306;28;20079;-59
2023/12/06 06:57:41;;;;;;;2.65;1.38;;;;;;;5.70;77.85;99844.00;10240125;28;20048;-59
2023/12/06 07:02:43;;;;;;;2.55;1.40;;;;;;;5.70;77.33;99852.84;10237169;28;20122;-59
2023/12/06 07:07:45;;;;;;;3.80;1.65;;;;;;;5.78;76.98;99857.41;10239549;28;20048;-62
2023/12/06 07:12:46;;;;;;;4.82;2.17;;;;;;;5.58;76.71;99859.44;10240162;28;20054;-61
2023/12/06 07:17:48;;;;;;;2.60;1.55;;;;;;;5.54;76.46;99872.22;10235844;28;20055;-61
2023/12/06 07:22:49;;;;;;;4.00;2.00;;;;;;;5.53;76.32;99875.91;10239316;28;20043;-72
2023/12/06 07:27:50;;;;;;;3.60;2.10;;;;;;;5.69;75.11;99887.69;10240672;28;20396;-63
2023/12/06 07:32:52;;;;;;;6.57;2.47;;;;;;;5.75;75.26;99885.22;10234926;28;20049;-60
2023/12/06 07:37:56;;;;;;;6.88;2.72;;;;;;;5.67;75.26;99905.66;10237051;28;20049;-60
2023/12/06 07:42:58;;;;;;;5.07;2.40;;;;;;;5.71;75.60;99918.53;10237735;28;20051;-60
2023/12/06 07:47:59;;;;;;;5.78;2.60;;;;;;;5.44;75.28;99916.81;10237741;28;20121;-60
2023/12/06 07:53:01;;;;;;;6.25;3.50;;;;;;;5.24;74.25;99924.13;10238357;28;20047;-61
2023/12/06 07:58:02;;;;;;;7.10;3.47;;;;;;;5.18;74.14;99939.91;10235644;28;20632;-59
2023/12/06 08:03:04;;;;;;;6.10;3.78;;;;;;;5.14;73.80;99940.19;10230929;28;21051;-58
2023/12/06 08:08:06;;;;;;;7.93;3.83;;;;;;;5.24;73.64;99945.44;10238420;28;20089;-59
2023/12/06 08:13:08;;;;;;;5.70;3.45;;;;;;;5.21;73.37;99955.56;10235800;28;20055;-58
2023/12/06 08:18:09;;;;;;;8.93;3.55;;;;;;;5.15;73.32;99965.00;10234896;28;20071;-60
2023/12/06 08:23:11;;;;;;;7.43;4.35;;;;;;;5.24;72.18;99982.75;10233419;28;20506;-59
2023/12/06 08:28:12;;;;;;;5.45;3.13;;;;;;;5.21;72.41;99987.53;10236959;28;20051;-59
2023/12/06 08:33:15;;;;;;;6.53;3.35;;;;;;;5.14;72.77;99996.13;10235853;28;20154;-59
2023/12/06 08:38:17;;;;;;;7.65;3.80;;;;;;;5.18;72.39;100009.16;10235348;28;20511;-59
2023/12/06 08:43:18;;;;;;;7.55;4.38;;;;;;;5.20;71.58;100001.88;10232226;28;20043;-60
2023/12/06 08:48:20;;;;;;;6.22;3.30;;;;;;;5.22;71.72;100002.53;10237477;28;20043;-60
2023/12/06 08:53:21;;;;;;;6.28;3.25;;;;;;;5.39;71.22;100012.41;10233480;28;20130;-60
2023/12/06 08:58:23;;;;;;;7.55;3.58;;;;;;;5.33;71.08;100007.63;10234569;28;20047;-59
2023/12/06 09:03:24;;;;;;;6.22;3.90;;;;;;;5.43;71.45;100024.44;10231699;28;20048;-59
2023/12/06 09:08:26;;;;;;;9.27;4.35;;;;;;;5.53;71.23;100021.69;10232411;28;20046;-59
2023/12/06 09:13:28;;;;;;;10.02;4.53;;;;;;;5.48;71.31;100026.63;10232927;28;20055;-59
2023/12/06 09:18:29;;;;;;;9.00;4.65;;;;;;;5.51;71.07;100037.84;10236627;28;20039;-59
2023/12/06 09:23:31;;;;;;;10.88;4.55;;;;;;;5.56;70.91;100046.19;10234190;28;20494;-59
2023/12/06 09:28:32;;;;;;;9.63;4.82;;;;;;;5.53;72.18;100054.53;10236766;28;20058;-60
2023/12/06 09:33:34;;;;;;;10.10;4.63;;;;;;;5.59;71.48;100068.22;10233520;28;20043;-59
2023/12/06 09:38:35;;;;;;;13.32;5.70;;;;;;;5.63;71.15;100065.13;10233138;28;20070;-59
2023/12/06 09:43:39;;;;;;;9.32;4.53;;;;;;;5.64;71.76;100072.13;10233347;28;20047;-59
2023/12/06 09:48:40;;;;;;;10.73;5.55;;;;;;;5.69;71.12;100080.50;10235639;28;20039;-59
2023/12/06 09:53:42;;;;;;;10.45;5.28;;;;;;;5.73;71.53;100079.22;10234852;28;20098;-59
2023/12/06 09:58:45;;;;;;;10.48;4.90;;;;;;;5.89;70.98;100089.22;10231099;28;20043;-59
2023/12/06 10:03:46;;;;;;;11.70;5.55;;;;;;;5.91;70.82;100089.06;10231925;28;20047;-59
2023/12/06 10:08:54;;;;;;;10.20;5.30;;;;;;;5.87;71.46;100090.34;10236130;28;20067;-60
2023/12/06 10:13:55;;;;;;;13.15;5.95;;;;;;;5.83;70.98;100092.47;10233431;28;20134;-59
2023/12/06 10:18:57;;;;;;;11.93;6.20;;;;;;;6.04;70.25;100096.69;10228747;28;20063;-60
2023/12/06 10:24:01;;;;;;;15.38;6.60;;;;;;;6.05;70.60;100095.72;10230283;28;20082;-59
2023/12/06 10:29:02;;;;;;;10.90;5.68;;;;;;;6.06;71.18;100102.72;10234538;28;20040;-59
2023/12/06 10:34:05;;;;;;;16.35;7.10;;;;;;;6.26;70.76;100093.56;10235467;28;20058;-60
2023/12/06 10:39:11;;;;;;;13.15;6.28;;;;;;;6.18;70.22;100103.31;10234423;28;20141;-59
2023/12/06 10:44:13;;;;;;;12.68;6.00;;;;;;;6.14;70.87;100102.78;10228835;28;20054;-58
2023/12/06 10:49:15;;;;;;;13.23;6.22;;;;;;;6.33;70.43;100107.97;10233899;28;20053;-59
2023/12/06 10:54:17;;;;;;;13.88;7.03;;;;;;;6.39;70.47;100109.19;10236354;28;20125;-59
2023/12/06 10:59:20;;;;;;;15.77;7.20;;;;;;;6.54;70.62;100110.28;10234157;28;20517;-59
2023/12/06 11:04:25;;;;;;;14.27;7.00;;;;;;;6.48;70.90;100110.09;10232098;28;20043;-59
2023/12/06 11:09:53;;;;;;;14.15;7.72;;;;;;;6.43;71.00;100113.22;10243097;28;20051;-59
2023/12/06 11:15:10;;;;;;;15.50;8.73;;;;;;;6.42;71.40;100103.53;10231811;28;20074;-59
2023/12/06 11:20:13;;;;;;;18.10;8.45;;;;;;;6.50;71.08;100119.63;10241326;28;20153;-59
2023/12/06 11:25:14;;;;;;;17.15;8.85;;;;;;;6.54;70.84;100115.63;10234584;28;20066;-61
2023/12/06 11:30:19;;;;;;;15.65;8.38;;;;;;;6.57;71.37;100116.31;10232270;28;20039;-60
2023/12/06 11:35:23;;;;;;;15.32;7.63;;;;;;;6.70;70.92;100119.44;10234673;28;20051;-61
2023/12/06 11:40:26;;;;;;;14.48;8.13;;;;;;;6.69;70.11;100115.06;10229641;28;20066;-60
2023/12/06 11:45:29;;;;;;;18.52;10.07;;;;;;;6.77;70.12;100125.81;10233220;28;20043;-61
2023/12/06 11:50:45;;;;;;;15.73;8.70;;;;;;;6.72;70.28;100117.44;10236341;28;20039;-59
2023/12/06 11:55:47;;;;;;;13.85;7.53;;;;;;;6.66;70.75;100118.91;10231599;28;20055;-59
2023/12/06 12:00:52;;;;;;;15.48;8.73;;;;;;;6.71;70.46;100118.41;10231449;28;20403;-59
2023/12/06 12:05:55;;;;;;;16.48;8.95;;;;;;;6.80;71.21;100122.81;10234447;28;20058;-59
2023/12/06 12:10:57;;;;;;;15.48;8.48;;;;;;;6.54;70.97;100120.97;10237017;28;20035;-59
2023/12/06 12:16:00;;;;;;;15.15;8.43;;;;;;;6.74;70.93;100126.13;10234009;28;20051;-60
2023/12/06 12:21:08;;;;;;;16.67;8.73;;;;;;;6.66;70.91;100129.56;10231421;28;20044;-59
2023/12/06 12:26:14;;;;;;;14.07;7.78;;;;;;;6.75;71.29;100135.81;10230610;28;20054;-60
2023/12/06 12:31:20;;;;;;;13.85;7.45;;;;;;;6.70;70.95;100135.44;10231614;28;20459;-59
2023/12/06 12:36:23;;;;;;;13.35;7.70;;;;;;;6.50;71.48;100135.63;10229439;28;20566;-59
2023/12/06 12:41:30;;;;;;;14.70;8.65;;;;;;;6.55;71.27;100136.00;10232327;28;20137;-60
2023/12/06 12:46:33;;;;;;;19.42;8.70;;;;;;;6.70;71.43;100151.47;10227346;28;20051;-60
2023/12/06 12:51:38;;;;;;;17.08;8.52;;;;;;;6.51;72.05;100153.31;10235523;28;20435;-60
2023/12/06 12:56:39;;;;;;;14.13;8.25;;;;;;;6.43;72.02;100145.25;10241499;28;20134;-59
2023/12/06 13:01:41;;;;;;;17.38;8.32;;;;;;;6.56;71.52;100150.22;10254509;28;20050;-59
2023/12/06 13:06:43;;;;;;;15.70;9.68;;;;;;;6.53;72.11;100155.84;10243308;28;20407;-59
2023/12/06 13:11:47;;;;;;;15.55;7.75;;;;;;;6.69;71.57;100158.63;10240031;28;20049;-59
2023/12/06 13:16:49;;;;;;;16.60;8.40;;;;;;;6.72;71.80;100152.16;10255236;28;20051;-59
2023/12/06 13:21:51;;;;;;;14.57;7.75;;;;;;;6.84;70.90;100158.09;10240177;28;20136;-59
2023/12/06 13:26:52;;;;;;;13.82;7.78;;;;;;;6.88;71.37;100164.78;10241505;28;20042;-61
2023/12/06 13:31:54;;;;;;;18.27;7.80;;;;;;;6.93;71.01;100162.47;10253502;28;20107;-60
2023/12/06 13:36:55;;;;;;;13.68;8.60;;;;;;;6.88;71.43;100175.47;10245025;28;20056;-60
2023/12/06 13:41:57;;;;;;;17.92;8.48;;;;;;;7.02;71.25;100172.22;10246559;28;20050;-60
2023/12/06 13:46:58;;;;;;;14.45;7.35;;;;;;;7.04;70.96;100182.75;10240544;28;21296;-61
2023/12/06 13:52:00;;;;;;;17.20;8.07;;;;;;;7.01;71.38;100180.41;10234398;28;20055;-60
2023/12/06 13:57:02;;;;;;;15.45;7.25;;;;;;;7.24;71.22;100184.22;10225811;28;20143;-60
2023/12/06 14:02:03;;;;;;;18.05;7.80;;;;;;;7.14;71.18;100197.69;10226064;28;20247;-61
2023/12/06 14:07:07;;;;;;;12.02;7.20;;;;;;;7.11;71.50;100186.50;10224538;28;20055;-61
2023/12/06 14:12:09;;;;;;;16.10;7.70;;;;;;;7.12;71.22;100191.66;10227341;28;20098;-60
2023/12/06 14:17:11;;;;;;;12.68;7.50;;;;;;;7.18;70.73;100202.72;10229153;28;20046;-61
2023/12/06 14:22:14;;;;;;;17.67;7.70;;;;;;;7.17;70.73;100201.03;10231440;28;20043;-60
2023/12/06 14:27:15;;;;;;;12.38;7.43;;;;;;;7.04;71.36;100201.47;10233092;28;20150;-60
2023/12/06 14:32:17;;;;;;;14.27;7.80;;;;;;;6.94;71.49;100214.94;10227651;28;20058;-61
2023/12/06 14:37:18;;;;;;;14.68;7.57;;;;;;;6.98;71.48;100212.78;10229298;28;20503;-59
2023/12/06 14:42:19;;;;;;;14.13;7.65;;;;;;;6.79;71.25;100224.50;10231612;28;20078;-58
2023/12/06 14:47:21;;;;;;;16.38;7.95;;;;;;;6.74;70.99;100225.78;10237404;28;20055;-59
2023/12/06 14:52:23;;;;;;;13.40;7.00;;;;;;;6.89;71.16;100230.56;10237178;28;20051;-60
2023/12/06 14:57:26;;;;;;;14.65;7.70;;;;;;;6.84;71.17;100240.91;10240324;28;20058;-59
2023/12/06 15:02:28;;;;;;;15.20;7.22;;;;;;;6.77;71.31;100251.34;10234944;28;20050;-60
2023/12/06 15:07:30;;;;;;;15.95;7.95;;;;;;;6.78;70.58;100254.88;10235392;28;20043;-59
2023/12/06 15:12:31;;;;;;;15.35;7.70;;;;;;;6.77;70.94;100266.56;10234632;28;20075;-57
2023/12/06 15:17:33;;;;;;;16.90;7.75;;;;;;;6.71;70.61;100271.53;10237996;28;20521;-60
2023/12/06 15:22:35;;;;;;;14.85;7.63;;;;;;;6.72;70.77;100277.69;10240052;28;20074;-59
2023/12/06 15:27:37;;;;;;;15.45;8.30;;;;;;;6.64;70.70;100282.97;10268965;23;20157;-59
2023/12/06 15:32:38;;;;;;;17.58;9.52;;;;;;;6.63;70.79;100290.13;10301128;28;20589;-59
2023/12/06 15:37:40;;;;;;;15.60;8.32;;;;;;;6.63;71.11;100292.78;10296806;28;20134;-60
2023/12/06 15:42:41;;;;;;;16.40;8.95;;;;;;;6.58;71.25;100303.13;10303164;28;20121;-59
2023/12/06 15:47:42;;;;;;;20.60;9.15;;;;;;;6.58;70.63;100307.63;10299729;28;20043;-57
2023/12/06 15:52:44;;;;;;;17.50;9.23;;;;;;;6.58;70.80;100312.97;10306396;28;20048;-57
2023/12/06 15:57:45;;;;;;;16.77;9.80;;;;;;;6.58;71.24;100328.97;10285834;28;20042;-57
2023/12/06 16:03:01;;;;;;;17.23;8.75;;;;;;;6.47;70.97;100340.69;10298009;28;20046;-56
2023/12/06 16:08:03;;;;;;;14.48;9.23;;;;;;;6.53;71.64;100345.44;10304118;28;20061;-57
2023/12/06 16:13:06;;;;;;;13.85;8.27;;;;;;;6.44;70.51;100360.53;10285929;28;20073;-57
2023/12/06 16:18:07;;;;;;;14.70;8.13;;;;;;;6.44;71.11;100368.56;10303594;28;20133;-56
2023/12/06 16:23:09;;;;;;;13.63;8.68;;;;;;;6.45;71.36;100380.91;10301332;28;20482;-57
2023/12/06 16:28:11;;;;;;;14.68;8.27;;;;;;;6.37;71.75;100385.31;10307213;28;20043;-56
2023/12/06 16:33:12;;;;;;;18.83;10.15;;;;;;;6.31;71.29;100400.91;10302721;28;20046;-57
2023/12/06 16:38:14;;;;;;;23.98;9.82;;;;;;;6.33;71.60;100406.13;10306269;28;20138;-56
2023/12/06 16:43:16;;;;;;;19.00;10.27;;;;;;;6.34;71.08;100413.97;10280806;28;20062;-57
2023/12/06 16:48:18;;;;;;;16.52;9.27;;;;;;;6.30;71.17;100428.63;10294854;28;20077;-57
2023/12/06 16:53:20;;;;;;;24.65;8.98;;;;;;;6.37;70.65;100428.84;10302125;28;20053;-57
2023/12/06 16:58:22;;;;;;;17.23;9.18;;;;;;;6.40;71.54;100423.22;10295930;28;20054;-56
2023/12/06 17:03:24;;;;;;;15.40;9.32;;;;;;;6.32;71.26;100434.66;10298842;28;20077;-57
2023/12/06 17:08:27;;;;;;;16.63;8.80;;;;;;;6.30;71.09;100438.44;10299958;28;20047;-57
2023/12/06 17:13:28;;;;;;;21.60;9.73;;;;;;;6.23;71.96;100446.19;10301274;28;20042;-56
2023/12/06 17:18:30;;;;;;;18.92;9.55;;;;;;;6.26;71.34;100451.25;10297951;28;20537;-57
2023/12/06 17:23:32;;;;;;;20.75;9.13;;;;;;;6.29;71.30;100461.63;10281809;28;20149;-57
2023/12/06 17:28:33;;;;;;;19.08;8.93;;;;;;;6.33;71.59;100473.69;10294707;28;20445;-56
2023/12/06 17:33:35;;;;;;;14.88;8.13;;;;;;;6.39;70.85;100474.94;10300809;28;20081;-57
2023/12/06 17:38:36;;;;;;;17.77;8.40;;;;;;;6.31;70.97;100480.16;10297486;28;20047;-57
2023/12/06 17:43:40;;;;;;;17.02;8.40;;;;;;;6.27;71.14;100486.78;10297606;28;20054;-57
2023/12/06 17:48:42;;;;;;;17.48;9.02;;;;;;;6.39;71.49;100488.28;10297319;28;20057;-57
2023/12/06 17:53:43;;;;;;;14.88;7.60;;;;;;;6.41;71.03;100498.81;10282520;28;20077;-55
2023/12/06 17:58:45;;;;;;;13.23;8.20;;;;;;;6.41;71.07;100502.34;10282605;28;20058;-56
2023/12/06 18:03:46;;;;;;;17.20;7.63;;;;;;;6.36;71.36;100501.94;10291414;28;20053;-59
2023/12/06 18:08:49;;;;;;;17.55;7.93;;;;;;;6.35;71.24;100500.25;10299176;28;20513;-58
2023/12/06 18:13:51;;;;;;;13.45;7.03;;;;;;;6.41;70.71;100498.81;10298910;28;20484;-58
2023/12/06 18:18:52;;;;;;;18.48;7.38;;;;;;;6.35;71.53;100506.41;10306066;28;20073;-58
2023/12/06 18:23:54;;;;;;;15.30;7.07;;;;;;;6.29;71.06;100516.84;10306904;28;20050;-58
2023/12/06 18:28:55;;;;;;;18.73;7.50;;;;;;;6.32;71.09;100513.91;10301504;28;20046;-58
2023/12/06 18:33:57;;;;;;;16.25;8.10;;;;;;;6.32;70.98;100505.91;10292454;28;20050;-58
2023/12/06 18:38:58;;;;;;;13.43;6.60;;;;;;;6.23;71.37;100515.59;10307511;28;20042;-58
2023/12/06 18:44:00;;;;;;;17.25;7.72;;;;;;;6.18;71.36;100517.88;10306135;28;20050;-58
2023/12/06 18:49:02;;;;;;;15.98;7.40;;;;;;;6.09;71.54;100514.22;10309130;28;20362;-58
2023/12/06 18:54:05;;;;;;;13.13;6.53;;;;;;;6.03;71.42;100524.63;10302938;28;20054;-58
2023/12/06 18:59:07;;;;;;;17.50;7.35;;;;;;;6.03;71.15;100530.78;10304673;28;20136;-59
2023/12/06 19:04:08;;;;;;;13.63;6.90;;;;;;;6.08;71.08;100533.88;10285296;28;20046;-58
2023/12/06 19:09:10;;;;;;;16.42;6.25;;;;;;;6.12;71.00;100542.44;10305125;28;20169;-58
2023/12/06 19:14:11;;;;;;;13.98;7.18;;;;;;;6.11;71.50;100544.25;10303535;28;20038;-56
2023/12/06 19:19:13;;;;;;;16.73;7.28;;;;;;;6.12;70.95;100547.75;10305425;28;20046;-58
2023/12/06 19:24:14;;;;;;;16.83;7.32;;;;;;;6.15;70.57;100539.50;10302108;28;20054;-56
2023/12/06 19:29:16;;;;;;;19.13;7.50;;;;;;;6.17;71.41;100544.69;10308221;28;20377;-56
2023/12/06 19:34:17;;;;;;;18.27;7.07;;;;;;;6.13;71.07;100552.13;10308035;28;20061;-57
2023/12/06 19:39:19;;;;;;;12.80;6.95;;;;;;;5.97;70.96;100550.03;10288750;28;20065;-56
2023/12/06 19:44:21;;;;;;;12.93;6.93;;;;;;;6.03;71.86;100549.47;10306554;28;20671;-56
2023/12/06 19:49:22;;;;;;;10.38;5.55;;;;;;;5.94;71.88;100548.47;10305309;28;20046;-57
2023/12/06 19:54:24;;;;;;;15.02;6.68;;;;;;;5.97;71.02;100542.03;10290196;28;20053;-56
2023/12/06 19:59:27;;;;;;;8.20;5.18;;;;;;;6.06;70.37;100543.88;10284987;28;20050;-56
2023/12/06 20:04:28;;;;;;;10.93;5.30;;;;;;;6.07;70.58;100547.38;10305306;28;20046;-57
2023/12/06 20:09:30;;;;;;;11.48;6.00;;;;;;;6.04;71.15;100551.16;10305067;28;20533;-57
2023/12/06 20:14:31;;;;;;;11.13;5.97;;;;;;;6.06;70.56;100559.88;10303956;28;20081;-56
2023/12/06 20:19:33;;;;;;;13.73;5.50;;;;;;;6.01;70.82;100559.44;10306811;28;20368;-57
2023/12/06 20:24:35;;;;;;;8.82;4.30;;;;;;;6.06;70.29;100559.88;10305496;28;20205;-57
2023/12/06 20:29:36;;;;;;;13.13;6.55;;;;;;;6.06;70.38;100565.22;10301243;28;20042;-58
2023/12/06 20:34:37;;;;;;;17.00;6.20;;;;;;;6.16;69.74;100567.84;10295682;28;20489;-57
2023/12/06 20:39:41;;;;;;;13.07;6.03;;;;;;;6.26;69.90;100570.50;10293857;28;20112;-57
2023/12/06 20:44:43;;;;;;;12.35;5.43;;;;;;;6.30;69.25;100572.78;10289606;28;20057;-57
2023/12/06 20:49:47;;;;;;;11.40;5.43;;;;;;;6.31;69.77;100584.28;10307333;28;20045;-56
2023/12/06 20:54:50;;;;;;;10.73;6.00;;;;;;;6.33;70.03;100587.66;10286379;28;20470;-57
2023/12/06 20:59:52;;;;;;;10.93;4.82;;;;;;;6.27;69.74;100593.56;10294372;28;20049;-57
2023/12/06 21:04:53;;;;;;;10.95;5.78;;;;;;;6.16;70.09;100594.53;10293829;28;20047;-56
2023/12/06 21:09:55;;;;;;;10.85;5.70;;;;;;;6.10;69.80;100590.63;10294050;28;20046;-55
2023/12/06 21:14:56;;;;;;;9.45;6.18;;;;;;;6.11;70.48;100599.47;10277344;28;20050;-56
2023/12/06 21:19:57;;;;;;;13.20;6.00;;;;;;;5.96;70.77;100596.38;10294590;28;20053;-56
2023/12/06 21:24:59;;;;;;;15.63;5.80;;;;;;;5.79;70.48;100592.56;10293465;28;20046;-55
2023/12/06 21:30:00;;;;;;;9.88;5.13;;;;;;;5.73;70.66;100601.13;10295268;28;20042;-55
2023/12/06 21:35:02;;;;;;;10.05;5.30;;;;;;;5.70;70.20;100604.03;10295359;28;20065;-57
2023/12/06 21:40:04;;;;;;;10.95;5.10;;;;;;;5.67;69.87;100599.00;10294061;28;20050;-57
2023/12/06 21:45:07;;;;;;;12.77;5.68;;;;;;;5.54;69.99;100608.06;10292513;28;20058;-57
2023/12/06 21:50:08;;;;;;;11.32;5.53;;;;;;;5.41;70.59;100612.84;10297845;28;20049;-58
2023/12/06 21:55:10;;;;;;;11.48;6.00;;;;;;;5.37;70.25;100611.41;10276655;28;20642;-57
2023/12/06 22:00:12;;;;;;;12.18;6.05;;;;;;;5.45;70.22;100626.72;10297015;28;20034;-57
2023/12/06 22:05:13;;;;;;;10.93;4.85;;;;;;;5.50;69.50;100630.66;10295496;28;20058;-57
2023/12/06 22:10:15;;;;;;;12.00;7.03;;;;;;;5.50;70.29;100638.66;10294278;28;20442;-56
2023/12/06 22:15:16;;;;;;;11.75;5.20;;;;;;;5.64;70.43;100637.44;10293440;28;20058;-57
2023/12/06 22:20:18;;;;;;;14.38;5.82;;;;;;;5.67;69.67;100633.66;10298089;28;20053;-58
2023/12/06 22:25:19;;;;;;;8.93;5.05;;;;;;;5.78;69.64;100640.69;10295990;28;20051;-59
2023/12/06 22:30:21;;;;;;;13.15;5.57;;;;;;;5.71;69.27;100646.59;10298783;28;20058;-57
2023/12/06 22:35:22;;;;;;;7.57;4.25;;;;;;;5.65;70.15;100641.81;10296109;28;20038;-58
2023/12/06 22:40:24;;;;;;;15.35;5.95;;;;;;;5.64;69.72;100644.59;10294091;28;20645;-56
2023/12/06 22:45:25;;;;;;;8.85;4.82;;;;;;;5.49;70.01;100647.66;10295593;28;20047;-56
2023/12/06 22:50:27;;;;;;;11.23;5.13;;;;;;;5.35;70.48;100650.66;10298319;28;20054;-56
2023/12/06 22:55:28;;;;;;;14.07;5.28;;;;;;;5.44;70.07;100651.69;10290960;28;20073;-56
2023/12/06 23:00:30;;;;;;;9.00;4.72;;;;;;;5.48;71.00;100664.63;10294537;28;20066;-56
2023/12/06 23:05:32;;;;;;;10.35;5.32;;;;;;;5.46;70.70;100653.25;10306736;28;20054;-56
2023/12/06 23:10:33;;;;;;;11.68;5.70;;;;;;;5.47;70.43;100660.28;10302864;28;20049;-56
2023/12/06 23:15:35;;;;;;;13.52;5.53;;;;;;;5.50;70.23;100656.50;10300551;28;20198;-56
2023/12/06 23:20:36;;;;;;;14.07;5.80;;;;;;;5.41;69.96;100666.16;10303038;28;20049;-57